Terminal Aerodrome Forecast
Issued by NWS

Home | Current Version | Previous Version | Text Only | Print | Product List | Glossary On
Versions: 1 2 3 4 5 6 7 8 9 10 11 12 13 14 15 16 17
000
FTAK31 PAFA 202338
TAFABT
TAF
PABT 202338Z 2100/2124 21010G18KT 3SM -SN BR BKN015 OVC025
      WS020/27030KT
     FM210300 18006KT 4SM -SN BR BKN015 OVC025 WS020/24030KT
     FM211200 18006KT 6SM -SN BR BKN015 OVC025
     FM211500 VRB04KT P6SM VCSH SCT015 BKN025 OVC035=

USA.gov is the U.S. government's official web portal to all federal, state and local government web resources and services.